Time;durP1;ratioP1;P1;durP2;ratioP2;P2;SDS_P1;SDS_P2;PMS_P1;PMS_P2;Temp;Humidity;BMP_temperature;BMP_pressure;BME280_temperature;BME280_humidity;BME280_pressure;Samples;Min_cycle;Max_cycle;Signal;HPM_P1;HPM_P2
2021/03/16 00:01:28;;;;;;;29.90;4.10;;;5.20;95.30;;;;;;5028664;28;20147;-76
2021/03/16 00:03:54;;;;;;;23.23;3.75;;;5.20;95.30;;;;;;5022755;28;20044;-76
2021/03/16 00:06:21;;;;;;;19.10;3.53;;;5.20;95.40;;;;;;5016086;28;20046;-76
2021/03/16 00:08:46;;;;;;;19.80;3.15;;;5.20;95.10;;;;;;5032524;28;20045;-76
2021/03/16 00:11:12;;;;;;;19.42;3.22;;;5.20;94.90;;;;;;5024235;28;20362;-76
2021/03/16 00:13:39;;;;;;;21.13;2.85;;;5.20;94.80;;;;;;5027886;28;20698;-76
2021/03/16 00:16:05;;;;;;;27.80;3.63;;;5.20;94.50;;;;;;5023054;28;20029;-76
2021/03/16 00:18:31;;;;;;;23.67;4.32;;;5.20;94.70;;;;;;5013805;28;20076;-77
2021/03/16 00:20:57;;;;;;;22.98;3.58;;;5.30;94.70;;;;;;5040426;28;20060;-77
2021/03/16 00:23:23;;;;;;;20.48;3.70;;;5.30;94.70;;;;;;5013552;28;20548;-77
2021/03/16 00:25:49;;;;;;;20.27;2.65;;;5.40;94.60;;;;;;5024546;28;20059;-76
2021/03/16 00:28:14;;;;;;;23.33;3.83;;;5.30;94.60;;;;;;5021925;28;20038;-76
2021/03/16 00:30:40;;;;;;;25.95;3.92;;;5.40;94.70;;;;;;5020801;28;20111;-78
2021/03/16 00:33:06;;;;;;;23.23;4.65;;;5.30;95.00;;;;;;5023768;28;20048;-77
2021/03/16 00:35:32;;;;;;;22.85;3.92;;;5.40;95.00;;;;;;5040682;28;20355;-77
2021/03/16 00:37:58;;;;;;;19.77;3.45;;;5.40;95.00;;;;;;5021645;28;20091;-77
2021/03/16 00:40:23;;;;;;;25.80;3.53;;;5.50;95.00;;;;;;5025457;28;20120;-76
2021/03/16 00:42:49;;;;;;;26.83;3.70;;;5.50;95.30;;;;;;5024909;28;20038;-76
2021/03/16 00:45:15;;;;;;;23.30;3.75;;;5.50;95.20;;;;;;5036918;28;20042;-77
2021/03/16 00:47:41;;;;;;;33.10;4.47;;;5.50;95.00;;;;;;5026669;28;20482;-77
2021/03/16 00:50:09;;;;;;;21.30;3.53;;;5.50;95.00;;;;;;5020179;28;20394;-77
2021/03/16 00:52:35;;;;;;;21.70;3.45;;;5.50;94.90;;;;;;5017557;28;20037;-77
2021/03/16 00:55:00;;;;;;;16.83;3.33;;;5.60;94.80;;;;;;5021726;28;20401;-77
2021/03/16 00:57:26;;;;;;;23.52;4.03;;;5.50;94.70;;;;;;5026560;28;20054;-77
2021/03/16 00:59:52;;;;;;;24.67;3.58;;;5.60;94.90;;;;;;5015618;28;20041;-77
2021/03/16 01:02:19;;;;;;;27.10;3.50;;;5.60;94.90;;;;;;5037600;28;20248;-77
2021/03/16 01:04:47;;;;;;;25.75;3.83;;;5.60;94.80;;;;;;5013131;28;20036;-77
2021/03/16 01:07:14;;;;;;;28.15;3.30;;;5.60;95.10;;;;;;5035079;28;20046;-77
2021/03/16 01:09:39;;;;;;;23.00;3.80;;;5.60;94.80;;;;;;5024337;28;20084;-77
2021/03/16 01:12:06;;;;;;;17.98;2.95;;;5.60;94.70;;;;;;5013222;28;20041;-77
2021/03/16 01:14:33;;;;;;;22.70;3.47;;;5.60;94.70;;;;;;5017811;28;20037;-77
2021/03/16 01:16:59;;;;;;;22.52;3.40;;;5.70;94.50;;;;;;5015157;28;20148;-77
2021/03/16 01:19:25;;;;;;;26.45;3.47;;;5.60;94.40;;;;;;5018296;28;20037;-77
2021/03/16 01:21:51;;;;;;;21.33;2.95;;;5.70;94.40;;;;;;5026513;28;20389;-77
2021/03/16 01:24:17;;;;;;;17.05;2.78;;;5.70;93.90;;;;;;5017655;28;20034;-77
2021/03/16 01:26:43;;;;;;;20.40;3.05;;;5.70;94.00;;;;;;5015048;28;20489;-77
2021/03/16 01:29:10;;;;;;;28.35;3.25;;;5.60;94.10;;;;;;5022135;28;20038;-77
2021/03/16 01:31:36;;;;;;;21.63;3.83;;;5.70;94.10;;;;;;5023348;28;20050;-77
2021/03/16 01:34:02;;;;;;;18.90;3.08;;;5.70;94.30;;;;;;5018411;28;20065;-77
2021/03/16 01:36:28;;;;;;;25.15;3.20;;;5.70;93.90;;;;;;5036086;28;20076;-77
2021/03/16 01:38:54;;;;;;;24.50;4.07;;;5.70;94.10;;;;;;5028262;28;20041;-77
2021/03/16 01:41:19;;;;;;;28.10;3.40;;;5.70;94.00;;;;;;5019793;28;20098;-77
2021/03/16 01:43:45;;;;;;;29.05;4.28;;;5.70;94.20;;;;;;5029188;28;20034;-77
2021/03/16 01:46:11;;;;;;;21.08;3.13;;;5.70;94.30;;;;;;5015973;28;20038;-77
2021/03/16 01:48:37;;;;;;;15.60;2.40;;;5.70;94.30;;;;;;5016337;28;20088;-77
2021/03/16 01:51:07;;;;;;;15.85;2.95;;;5.70;93.90;;;;;;5019257;28;20454;-77
2021/03/16 01:53:33;;;;;;;20.05;3.17;;;5.70;93.80;;;;;;5023403;28;20228;-78
2021/03/16 01:56:01;;;;;;;17.77;3.10;;;5.70;93.90;;;;;;5029867;28;20041;-77
2021/03/16 01:58:27;;;;;;;21.02;2.83;;;5.80;94.10;;;;;;5018687;28;20038;-77
2021/03/16 02:00:53;;;;;;;14.73;2.70;;;5.70;93.90;;;;;;5038950;28;20065;-77
2021/03/16 02:03:19;;;;;;;18.98;3.50;;;5.70;94.00;;;;;;5021877;28;20041;-77
2021/03/16 02:05:45;;;;;;;21.20;2.60;;;5.70;94.10;;;;;;5020718;28;20403;-77
2021/03/16 02:08:25;;;;;;;21.95;2.38;;;5.70;94.00;;;;;;5025661;28;20380;-77
2021/03/16 02:11:17;;;;;;;17.58;2.70;;;5.70;93.40;;;;;;5014532;28;20370;-77
2021/03/16 02:14:02;;;;;;;24.63;3.55;;;5.80;93.60;;;;;;4995830;28;20477;-77
2021/03/16 02:16:54;;;;;;;19.20;3.08;;;5.80;93.60;;;;;;5029118;28;20050;-77
2021/03/16 02:19:53;;;;;;;20.48;3.15;;;5.80;93.80;;;;;;5015929;28;20049;-77
2021/03/16 02:22:21;;;;;;;17.25;3.00;;;5.70;93.90;;;;;;5031961;28;20489;-77
2021/03/16 02:25:19;;;;;;;15.75;2.40;;;5.70;94.00;;;;;;5028824;28;20493;-77
2021/03/16 02:28:02;;;;;;;16.48;2.42;;;5.70;93.50;;;;;;5026393;28;20041;-77
2021/03/16 02:30:30;;;;;;;21.25;3.05;;;5.70;93.70;;;;;;5029937;28;20128;-77
2021/03/16 02:32:57;;;;;;;21.15;4.25;;;5.70;93.90;;;;;;5027029;28;20069;-77
2021/03/16 02:35:23;;;;;;;20.52;2.90;;;5.70;94.00;;;;;;5017732;28;20052;-77
2021/03/16 02:37:54;;;;;;;16.70;3.20;;;5.70;94.00;;;;;;5018319;28;20053;-77
2021/03/16 02:40:21;;;;;;;20.55;3.42;;;5.70;94.30;;;;;;5028109;28;20052;-77
2021/03/16 02:42:47;;;;;;;15.05;2.35;;;5.70;94.30;;;;;;5023461;28;20083;-77
2021/03/16 02:45:14;;;;;;;18.20;2.42;;;5.60;94.40;;;;;;5017926;28;20490;-77
2021/03/16 02:47:44;;;;;;;20.15;3.40;;;5.60;94.60;;;;;;5018056;28;20076;-77
2021/03/16 02:50:12;;;;;;;20.98;3.33;;;5.60;94.70;;;;;;5024493;28;20110;-77
2021/03/16 02:52:38;;;;;;;13.27;2.42;;;5.60;95.00;;;;;;5022565;28;20042;-77
2021/03/16 02:55:05;;;;;;;19.50;2.95;;;5.60;95.00;;;;;;5019385;28;20044;-77
2021/03/16 02:57:33;;;;;;;20.95;2.60;;;5.60;95.10;;;;;;5019366;28;20033;-77
2021/03/16 03:00:01;;;;;;;16.17;3.25;;;5.50;95.20;;;;;;5040584;28;20563;-77
2021/03/16 03:02:29;;;;;;;24.55;4.22;;;5.50;95.50;;;;;;5028578;28;20077;-77
2021/03/16 03:04:56;;;;;;;19.38;3.75;;;5.50;95.20;;;;;;5014624;28;20069;-77
2021/03/16 03:07:22;;;;;;;17.52;3.00;;;5.50;95.30;;;;;;5043810;28;20090;-77
2021/03/16 03:09:48;;;;;;;17.83;3.00;;;5.50;95.40;;;;;;5018377;28;20087;-77
2021/03/16 03:12:14;;;;;;;19.27;3.05;;;5.50;95.50;;;;;;5029648;28;20045;-77
2021/03/16 03:14:40;;;;;;;24.02;3.17;;;5.50;95.50;;;;;;5020867;28;20042;-77
2021/03/16 03:17:08;;;;;;;23.00;3.28;;;5.50;95.70;;;;;;5028303;28;20057;-77
2021/03/16 03:19:34;;;;;;;22.10;2.60;;;5.60;95.60;;;;;;5029029;28;20107;-77
2021/03/16 03:22:11;;;;;;;19.33;3.33;;;5.50;95.50;;;;;;5015695;28;20053;-77
2021/03/16 03:24:44;;;;;;;19.98;2.88;;;5.60;95.60;;;;;;5028535;28;20163;-78
2021/03/16 03:27:33;;;;;;;23.98;3.83;;;5.60;95.60;;;;;;5015918;28;20650;-78
2021/03/16 03:30:00;;;;;;;28.92;3.42;;;5.50;95.50;;;;;;5016801;28;20460;-78
2021/03/16 03:32:33;;;;;;;24.60;3.20;;;5.50;95.70;;;;;;5019330;28;20046;-77
2021/03/16 03:35:01;;;;;;;21.83;3.58;;;5.60;95.80;;;;;;5014207;28;20053;-77
2021/03/16 03:37:30;;;;;;;20.40;3.00;;;5.50;95.70;;;;;;5020036;28;20037;-77
2021/03/16 03:39:57;;;;;;;19.17;3.17;;;5.50;95.70;;;;;;5020260;28;20042;-77
2021/03/16 03:42:24;;;;;;;25.75;3.90;;;5.60;95.80;;;;;;5016669;28;20511;-77
2021/03/16 03:44:52;;;;;;;28.52;3.83;;;5.50;95.90;;;;;;5014559;28;20049;-77
2021/03/16 03:47:18;;;;;;;19.33;3.15;;;5.50;95.90;;;;;;5018972;28;20053;-77
2021/03/16 03:49:45;;;;;;;18.70;2.72;;;5.50;95.90;;;;;;5017951;28;20044;-77
2021/03/16 03:52:13;;;;;;;25.40;3.63;;;5.50;95.90;;;;;;5017967;28;20048;-77
2021/03/16 03:54:44;;;;;;;23.38;3.30;;;5.50;96.30;;;;;;5027712;28;20042;-77
2021/03/16 03:57:10;;;;;;;16.63;2.95;;;5.50;96.00;;;;;;5024112;28;20033;-77
2021/03/16 03:59:41;;;;;;;25.77;3.30;;;5.50;96.00;;;;;;5026631;28;20081;-77
2021/03/16 04:02:07;;;;;;;18.42;3.10;;;5.50;96.10;;;;;;5022100;28;20039;-77
2021/03/16 04:04:36;;;;;;;26.52;3.25;;;5.50;95.90;;;;;;5026971;28;20127;-77
2021/03/16 04:07:02;;;;;;;21.85;3.72;;;5.50;96.00;;;;;;5020022;28;20689;-77
2021/03/16 04:09:28;;;;;;;21.33;3.72;;;5.50;95.90;;;;;;5018264;28;20040;-77
2021/03/16 04:11:55;;;;;;;25.63;3.40;;;5.50;95.90;;;;;;5025977;28;20038;-77
2021/03/16 04:14:21;;;;;;;22.25;2.97;;;5.50;95.90;;;;;;5013793;28;20121;-77
2021/03/16 04:16:47;;;;;;;25.85;3.38;;;5.50;95.80;;;;;;5020358;28;20077;-77
2021/03/16 04:19:15;;;;;;;17.55;2.85;;;5.50;95.80;;;;;;5017885;28;20045;-77
2021/03/16 04:21:42;;;;;;;19.10;3.55;;;5.50;96.00;;;;;;5016635;28;20037;-77
2021/03/16 04:24:08;;;;;;;17.83;2.83;;;5.50;95.90;;;;;;5037585;28;20038;-77
2021/03/16 04:26:34;;;;;;;23.15;2.60;;;5.50;95.90;;;;;;5027122;28;20037;-77
2021/03/16 04:29:00;;;;;;;20.17;2.85;;;5.50;95.90;;;;;;5017782;28;20045;-77
2021/03/16 04:31:26;;;;;;;20.85;3.08;;;5.50;96.00;;;;;;5021402;28;20042;-77
2021/03/16 04:33:51;;;;;;;18.05;2.83;;;5.50;95.90;;;;;;5017914;28;20053;-77
2021/03/16 04:36:17;;;;;;;18.50;2.97;;;5.50;95.90;;;;;;5030079;28;20040;-77
2021/03/16 04:38:43;;;;;;;19.63;3.25;;;5.50;96.00;;;;;;5015634;28;20029;-78
2021/03/16 04:41:09;;;;;;;18.48;3.00;;;5.50;96.00;;;;;;5022565;28;20065;-78
2021/03/16 04:43:35;;;;;;;21.48;3.22;;;5.50;96.00;;;;;;5027031;28;20053;-77
2021/03/16 04:46:00;;;;;;;25.67;3.30;;;5.50;96.00;;;;;;5023811;28;20069;-77
2021/03/16 04:48:26;;;;;;;18.42;2.75;;;5.50;96.20;;;;;;5028346;28;20061;-77
2021/03/16 04:50:52;;;;;;;19.25;3.20;;;5.40;96.40;;;;;;5023463;28;20042;-77
2021/03/16 04:53:18;;;;;;;20.80;2.53;;;5.40;96.10;;;;;;5020119;28;20057;-77
2021/03/16 04:55:43;;;;;;;16.27;2.30;;;5.30;96.00;;;;;;5030418;28;20052;-77
2021/03/16 04:58:09;;;;;;;18.42;2.75;;;5.30;96.10;;;;;;5034492;28;20125;-77
2021/03/16 05:00:35;;;;;;;26.23;3.35;;;5.20;96.10;;;;;;5021311;28;20073;-77
2021/03/16 05:03:00;;;;;;;18.73;3.20;;;5.20;96.20;;;;;;5024208;28;20068;-77
2021/03/16 05:05:26;;;;;;;18.20;2.30;;;5.20;96.30;;;;;;5039969;28;20426;-76
2021/03/16 05:07:52;;;;;;;23.02;2.38;;;5.10;96.30;;;;;;5024384;28;20029;-77
2021/03/16 05:10:18;;;;;;;21.52;3.75;;;5.10;96.30;;;;;;5022400;28;20037;-77
2021/03/16 05:12:43;;;;;;;20.13;3.40;;;5.10;96.40;;;;;;5016706;28;20045;-77
2021/03/16 05:15:10;;;;;;;17.45;2.47;;;5.10;96.50;;;;;;5022468;28;20034;-77
2021/03/16 05:17:35;;;;;;;16.38;2.00;;;5.10;96.50;;;;;;5027705;28;20108;-77
2021/03/16 05:20:02;;;;;;;22.65;2.38;;;5.00;96.50;;;;;;5027870;28;20584;-77
2021/03/16 05:22:28;;;;;;;22.38;3.42;;;5.00;96.60;;;;;;5027030;28;20116;-78
2021/03/16 05:24:54;;;;;;;18.83;2.28;;;5.00;96.60;;;;;;5016407;28;20472;-77
2021/03/16 05:27:19;;;;;;;20.13;2.75;;;5.00;96.60;;;;;;5019715;28;20081;-77
2021/03/16 05:29:45;;;;;;;16.48;2.47;;;4.90;96.60;;;;;;5017413;28;20038;-77
2021/03/16 05:32:11;;;;;;;15.40;2.55;;;5.00;96.80;;;;;;5034242;28;20136;-77
2021/03/16 05:34:37;;;;;;;15.80;3.10;;;5.00;96.80;;;;;;5029445;28;20053;-77
2021/03/16 05:37:03;;;;;;;25.85;3.70;;;5.00;96.80;;;;;;5028124;28;20037;-77
2021/03/16 05:39:28;;;;;;;18.20;2.65;;;5.10;96.90;;;;;;5029332;28;20042;-77
2021/03/16 05:41:55;;;;;;;18.38;2.55;;;5.00;96.90;;;;;;5018916;28;20125;-77
2021/03/16 05:44:22;;;;;;;17.85;2.38;;;5.00;96.90;;;;;;5022178;28;20395;-77
2021/03/16 05:46:48;;;;;;;19.13;3.08;;;5.00;96.90;;;;;;5019751;28;20381;-77
2021/03/16 05:49:16;;;;;;;30.60;3.15;;;5.00;96.80;;;;;;5029378;28;20033;-77
2021/03/16 05:51:43;;;;;;;19.50;3.45;;;5.00;96.90;;;;;;5015327;28;20061;-77
2021/03/16 05:54:09;;;;;;;19.30;2.72;;;5.00;96.90;;;;;;5029212;28;20041;-77
2021/03/16 05:56:35;;;;;;;23.60;3.05;;;4.90;96.90;;;;;;5026726;28;20470;-76
2021/03/16 05:59:03;;;;;;;15.63;2.78;;;4.90;97.00;;;;;;5028946;28;20107;-77
2021/03/16 06:01:29;;;;;;;14.52;3.13;;;4.90;97.00;;;;;;5024318;28;20049;-77
2021/03/16 06:03:55;;;;;;;19.63;3.20;;;4.90;97.10;;;;;;5018959;28;20038;-77
2021/03/16 06:06:21;;;;;;;18.48;2.35;;;5.00;97.00;;;;;;5011691;28;20056;-77
2021/03/16 06:08:46;;;;;;;17.10;3.20;;;4.90;96.90;;;;;;5021251;28;20049;-77
2021/03/16 06:11:12;;;;;;;17.80;2.97;;;4.90;96.90;;;;;;5029334;28;20504;-77
2021/03/16 06:13:58;;;;;;;21.05;2.88;;;4.90;96.90;;;;;;5035486;28;20076;-77
2021/03/16 06:16:24;;;;;;;23.80;2.95;;;4.80;96.80;;;;;;5027731;28;20057;-78
2021/03/16 06:18:50;;;;;;;23.25;2.83;;;4.80;96.90;;;;;;5038318;28;20030;-79
2021/03/16 06:21:22;;;;;;;18.85;2.90;;;4.80;97.00;;;;;;5020118;28;20055;-79
2021/03/16 06:24:01;;;;;;;23.50;3.17;;;4.80;97.20;;;;;;5034122;28;20049;-78
2021/03/16 06:26:32;;;;;;;15.68;2.78;;;4.90;97.20;;;;;;5026400;28;20383;-77
2021/03/16 06:29:10;;;;;;;24.30;3.73;;;4.90;97.20;;;;;;5013196;28;20038;-78
2021/03/16 06:31:37;;;;;;;24.60;3.65;;;5.00;97.20;;;;;;5030616;28;20112;-77
2021/03/16 06:34:04;;;;;;;21.73;3.05;;;5.00;97.20;;;;;;5027263;28;20111;-78
2021/03/16 06:36:32;;;;;;;19.65;3.50;;;5.00;97.20;;;;;;5018663;28;20741;-78
2021/03/16 06:38:58;;;;;;;22.20;3.70;;;5.00;97.20;;;;;;5015806;28;20048;-77
2021/03/16 06:41:28;;;;;;;22.65;3.33;;;5.10;97.10;;;;;;5029939;28;20091;-78
2021/03/16 06:44:00;;;;;;;26.88;3.05;;;5.20;97.10;;;;;;5023803;28;20448;-78
2021/03/16 06:47:20;;;;;;;22.30;2.92;;;5.20;97.10;;;;;;5029059;28;20105;-80
2021/03/16 06:49:48;;;;;;;22.33;2.75;;;5.20;96.60;;;;;;5021666;28;20060;-80
2021/03/16 06:52:14;;;;;;;21.70;3.55;;;5.20;96.60;;;;;;5028899;28;20033;-78
2021/03/16 06:54:40;;;;;;;18.85;2.70;;;5.30;96.60;;;;;;5018883;28;20055;-78
2021/03/16 06:57:08;;;;;;;18.60;3.03;;;5.30;96.60;;;;;;5021050;28;20035;-78
2021/03/16 06:59:33;;;;;;;19.02;2.47;;;5.40;96.70;;;;;;5015686;28;20037;-78
2021/03/16 07:02:15;;;;;;;19.08;2.67;;;5.50;96.70;;;;;;5013646;28;20065;-79
2021/03/16 07:04:56;;;;;;;18.98;2.25;;;5.70;96.60;;;;;;5013364;28;20030;-79
2021/03/16 07:07:46;;;;;;;;;;;;;;;;;;;;;
2021/03/16 07:10:21;;;;;;;18.13;2.60;;;5.80;95.70;;;;;;4992043;28;20123;-79
2021/03/16 07:12:53;;;;;;;23.75;3.30;;;5.80;95.50;;;;;;5017958;28;20548;-78
2021/03/16 07:15:19;;;;;;;20.33;3.20;;;5.90;95.50;;;;;;5018565;28;20037;-78
2021/03/16 07:17:48;;;;;;;20.00;3.00;;;5.90;95.40;;;;;;5030499;28;20048;-77
2021/03/16 07:20:15;;;;;;;17.42;3.05;;;5.90;95.40;;;;;;5022752;28;20467;-78
2021/03/16 07:22:51;;;;;;;20.73;2.83;;;5.90;95.50;;;;;;5029737;28;20038;-77
2021/03/16 07:25:29;;;;;;;20.52;2.60;;;6.00;95.50;;;;;;5018952;28;20087;-78
2021/03/16 07:28:02;;;;;;;15.98;2.83;;;6.00;95.60;;;;;;5001374;28;20034;-78
2021/03/16 07:30:40;;;;;;;21.80;2.92;;;6.00;95.60;;;;;;5027201;28;20067;-78
2021/03/16 07:33:06;;;;;;;19.92;3.22;;;6.00;95.40;;;;;;5033680;28;20045;-78
2021/03/16 07:35:36;;;;;;;21.73;4.65;;;6.00;95.50;;;;;;5027783;28;20042;-79
2021/03/16 07:38:03;;;;;;;21.80;3.05;;;6.10;95.50;;;;;;5024515;28;20080;-77
2021/03/16 07:40:29;;;;;;;22.55;3.03;;;6.20;95.70;;;;;;5014857;28;20053;-76
2021/03/16 07:42:54;;;;;;;22.23;3.00;;;6.30;95.70;;;;;;5032290;28;20096;-76
2021/03/16 07:45:29;;;;;;;18.10;2.58;;;6.50;96.00;;;;;;5028124;28;20060;-78
2021/03/16 07:47:56;;;;;;;16.77;3.25;;;6.80;95.30;;;;;;5031926;28;20040;-76
2021/03/16 07:50:32;;;;;;;26.08;3.35;;;6.80;94.40;;;;;;5031356;28;20640;-76
2021/03/16 07:52:58;;;;;;;17.63;2.85;;;6.70;93.50;;;;;;5023141;28;20073;-76
2021/03/16 07:55:30;;;;;;;15.45;2.10;;;6.70;94.50;;;;;;5014206;28;20045;-77
2021/03/16 07:58:10;;;;;;;14.32;2.20;;;6.80;94.10;;;;;;5022765;28;20044;-77
2021/03/16 08:00:36;;;;;;;17.20;3.17;;;6.80;93.60;;;;;;5028118;28;20084;-76
2021/03/16 08:03:06;;;;;;;18.85;2.25;;;6.90;93.60;;;;;;5012240;28;20034;-76
2021/03/16 08:05:43;;;;;;;16.23;2.20;;;6.90;93.70;;;;;;5017927;28;20049;-77
2021/03/16 08:08:19;;;;;;;13.77;2.15;;;7.10;92.50;;;;;;5011631;28;20394;-76
2021/03/16 08:10:47;;;;;;;16.63;2.33;;;7.20;92.20;;;;;;5024546;28;20049;-77
2021/03/16 08:13:16;;;;;;;16.92;2.35;;;7.30;91.50;;;;;;5021663;28;20061;-76
2021/03/16 08:15:48;;;;;;;18.15;2.67;;;7.30;91.30;;;;;;5013746;28;20197;-76
2021/03/16 08:18:26;;;;;;;15.65;2.55;;;7.30;92.10;;;;;;5019393;28;20041;-76
2021/03/16 08:20:51;;;;;;;16.08;2.63;;;7.50;92.10;;;;;;5029149;28;20038;-76
2021/03/16 08:23:18;;;;;;;15.35;2.35;;;7.60;92.10;;;;;;5020908;28;20061;-76
2021/03/16 08:25:47;;;;;;;12.02;1.83;;;7.70;91.30;;;;;;5029770;28;20094;-76
2021/03/16 08:28:16;;;;;;;11.95;1.92;;;7.80;90.00;;;;;;5021182;28;20038;-76
2021/03/16 08:30:42;;;;;;;10.07;1.70;;;7.80;90.30;;;;;;5013708;28;20461;-75
2021/03/16 08:33:13;;;;;;;16.35;2.22;;;7.90;90.20;;;;;;5011949;28;20069;-76
2021/03/16 08:35:47;;;;;;;11.80;1.60;;;7.90;88.90;;;;;;5030841;28;20548;-77
2021/03/16 08:38:28;;;;;;;8.93;1.25;;;7.80;88.80;;;;;;5016486;28;20037;-77
2021/03/16 08:41:08;;;;;;;12.95;1.80;;;7.70;86.50;;;;;;5013671;28;20045;-77
2021/03/16 08:43:34;;;;;;;13.38;2.10;;;7.60;86.20;;;;;;5014051;28;20025;-77
2021/03/16 08:46:00;;;;;;;12.38;2.10;;;7.50;88.40;;;;;;5032310;28;20413;-77
2021/03/16 08:48:34;;;;;;;13.35;2.08;;;7.30;88.90;;;;;;5019161;28;20109;-76
2021/03/16 08:51:00;;;;;;;13.57;2.35;;;7.40;89.50;;;;;;5013571;28;20038;-76
2021/03/16 08:53:26;;;;;;;13.50;2.10;;;7.60;89.20;;;;;;5018495;28;20507;-76
2021/03/16 08:55:53;;;;;;;14.90;2.30;;;7.80;87.30;;;;;;5030975;28;20482;-76
2021/03/16 08:58:20;;;;;;;10.50;1.98;;;7.90;86.50;;;;;;5027346;28;20132;-77
2021/03/16 09:00:46;;;;;;;11.18;1.35;;;8.00;84.00;;;;;;5031001;28;20056;-76
2021/03/16 09:03:13;;;;;;;9.00;1.50;;;8.10;84.20;;;;;;5028741;28;20045;-77
2021/03/16 09:05:39;;;;;;;10.80;1.10;;;8.20;83.90;;;;;;5028277;28;20468;-76
2021/03/16 09:08:06;;;;;;;14.43;1.95;;;8.30;82.00;;;;;;5030114;28;20041;-77
2021/03/16 09:10:32;;;;;;;12.07;1.30;;;8.40;81.70;;;;;;5011298;28;20079;-76
2021/03/16 09:12:58;;;;;;;10.43;1.42;;;8.60;80.80;;;;;;5012926;28;20402;-76
2021/03/16 09:15:27;;;;;;;8.98;2.33;;;8.90;80.40;;;;;;5019882;28;20081;-77
2021/03/16 09:17:55;;;;;;;6.47;1.10;;;9.00;81.10;;;;;;5030272;28;20042;-76
2021/03/16 09:20:35;;;;;;;9.93;1.83;;;9.10;80.10;;;;;;5018002;28;20048;-76
2021/03/16 09:23:06;;;;;;;7.72;1.05;;;9.20;77.60;;;;;;5012701;28;20088;-76
2021/03/16 09:25:35;;;;;;;7.82;1.20;;;9.20;78.00;;;;;;5024381;28;20098;-76
2021/03/16 09:28:03;;;;;;;10.43;2.10;;;9.20;76.90;;;;;;5014720;28;20038;-75
2021/03/16 09:30:42;;;;;;;8.45;1.10;;;9.10;76.20;;;;;;5017735;28;20057;-75
2021/03/16 09:33:11;;;;;;;8.27;1.40;;;9.10;75.90;;;;;;5012244;28;20048;-76
2021/03/16 09:35:37;;;;;;;7.53;1.70;;;9.00;75.80;;;;;;5013119;28;20660;-75
2021/03/16 09:38:07;;;;;;;8.18;1.42;;;8.80;76.70;;;;;;5030472;28;20474;-76
2021/03/16 09:40:38;;;;;;;5.78;1.10;;;8.80;76.90;;;;;;5024856;28;20136;-75
2021/03/16 09:43:19;;;;;;;8.55;1.35;;;8.90;77.60;;;;;;5012645;28;20037;-75
2021/03/16 09:45:54;;;;;;;9.55;1.23;;;9.00;75.60;;;;;;5024528;28;20069;-76
2021/03/16 09:48:20;;;;;;;8.73;1.25;;;9.00;76.40;;;;;;5021114;28;20095;-75
2021/03/16 09:50:46;;;;;;;11.30;1.35;;;8.90;76.40;;;;;;5021311;28;20041;-76
2021/03/16 09:53:15;;;;;;;9.10;1.60;;;9.00;77.40;;;;;;5029440;28;20037;-76
2021/03/16 09:55:42;;;;;;;8.10;0.98;;;9.00;75.80;;;;;;5027541;28;20038;-75
2021/03/16 09:58:21;;;;;;;7.93;1.23;;;9.10;76.40;;;;;;5029767;28;20063;-76
2021/03/16 10:00:51;;;;;;;10.23;1.58;;;9.10;74.00;;;;;;5025930;28;20132;-78
2021/03/16 10:03:19;;;;;;;8.60;1.30;;;9.10;75.50;;;;;;5022389;28;20046;-76
2021/03/16 10:05:48;;;;;;;9.70;1.30;;;9.00;76.10;;;;;;5028046;28;20042;-76
2021/03/16 10:08:24;;;;;;;10.05;2.20;;;9.20;77.10;;;;;;5028965;28;20042;-75
2021/03/16 10:10:50;;;;;;;10.57;1.35;;;9.30;76.10;;;;;;5012313;28;20136;-76
2021/03/16 10:13:16;;;;;;;13.32;3.25;;;9.50;76.60;;;;;;5025117;28;20125;-76
2021/03/16 10:15:44;;;;;;;8.35;1.33;;;9.30;74.40;;;;;;5010601;28;20121;-75
2021/03/16 10:18:13;;;;;;;10.68;1.20;;;9.10;74.20;;;;;;5024382;28;20080;-76
2021/03/16 10:20:43;;;;;;;10.18;1.55;;;8.90;74.70;;;;;;5029484;28;20060;-76
2021/03/16 10:23:11;;;;;;;10.13;1.40;;;8.90;76.60;;;;;;5013412;28;20040;-75
2021/03/16 10:25:38;;;;;;;9.25;1.55;;;9.00;77.50;;;;;;5012631;28;20477;-75
2021/03/16 10:28:06;;;;;;;9.13;1.10;;;9.10;78.20;;;;;;5010172;28;20551;-75
2021/03/16 10:30:39;;;;;;;8.25;1.25;;;9.20;75.70;;;;;;5012463;28;20477;-75
2021/03/16 10:33:07;;;;;;;5.82;1.13;;;9.20;75.30;;;;;;5019530;28;20072;-75
2021/03/16 10:35:37;;;;;;;8.93;1.10;;;9.30;73.70;;;;;;5028834;28;20064;-75
2021/03/16 10:38:04;;;;;;;6.10;1.23;;;9.40;72.70;;;;;;5024105;28;20081;-75
2021/03/16 10:40:31;;;;;;;5.82;1.00;;;9.50;72.90;;;;;;5032394;28;20041;-75
2021/03/16 10:42:57;;;;;;;5.07;1.33;;;9.50;71.40;;;;;;5024099;28;20072;-75
2021/03/16 10:45:23;;;;;;;7.57;0.60;;;9.50;71.90;;;;;;5016006;28;20038;-75
2021/03/16 10:47:49;;;;;;;7.45;1.33;;;9.50;69.80;;;;;;5013694;28;20046;-75
2021/03/16 10:50:16;;;;;;;9.65;1.35;;;9.40;68.60;;;;;;5025648;28;20049;-75
2021/03/16 10:52:42;;;;;;;7.80;1.25;;;9.30;70.10;;;;;;5019328;28;20148;-75
2021/03/16 10:55:08;;;;;;;11.10;1.60;;;9.30;71.80;;;;;;5014735;28;20118;-75
2021/03/16 10:57:35;;;;;;;8.52;1.02;;;9.20;72.60;;;;;;5015776;28;20091;-75
2021/03/16 11:00:03;;;;;;;4.43;0.80;;;9.40;70.80;;;;;;5012083;28;20054;-75
2021/03/16 11:02:28;;;;;;;4.78;0.77;;;9.40;68.00;;;;;;5015085;28;20054;-75
2021/03/16 11:04:54;;;;;;;5.10;0.80;;;9.40;69.00;;;;;;5021370;28;20052;-75
2021/03/16 11:07:20;;;;;;;6.85;0.80;;;9.50;69.40;;;;;;5029843;28;20041;-75
2021/03/16 11:09:46;;;;;;;7.85;0.85;;;9.60;69.40;;;;;;5018819;28;20034;-76
2021/03/16 11:12:12;;;;;;;7.85;0.55;;;9.70;69.30;;;;;;5015060;28;20038;-75
2021/03/16 11:14:38;;;;;;;7.18;1.25;;;9.80;70.10;;;;;;5022939;28;20747;-75
2021/03/16 11:17:04;;;;;;;5.63;0.80;;;9.90;69.70;;;;;;5019232;28;20049;-75
2021/03/16 11:19:30;;;;;;;9.23;1.17;;;9.90;69.10;;;;;;5020849;28;20029;-75
2021/03/16 11:21:55;;;;;;;7.80;1.00;;;9.80;69.00;;;;;;5021243;28;20045;-75
2021/03/16 11:24:21;;;;;;;6.72;1.30;;;9.70;69.30;;;;;;5017153;28;20037;-75
2021/03/16 11:26:47;;;;;;;11.38;1.20;;;9.50;68.40;;;;;;5015712;28;20046;-76
2021/03/16 11:29:13;;;;;;;9.98;1.38;;;9.20;69.70;;;;;;5039961;28;20137;-76
2021/03/16 11:31:39;;;;;;;8.20;1.23;;;8.90;70.00;;;;;;5020719;28;20041;-75
2021/03/16 11:34:05;;;;;;;6.60;1.08;;;8.90;71.60;;;;;;5021237;28;20057;-74
2021/03/16 11:36:32;;;;;;;9.88;1.70;;;9.00;72.70;;;;;;5031232;28;20370;-74
2021/03/16 11:38:58;;;;;;;6.13;0.93;;;9.10;71.30;;;;;;5032526;28;20037;-76
2021/03/16 11:41:24;;;;;;;7.75;1.48;;;9.20;71.60;;;;;;5023210;28;20038;-75
2021/03/16 11:43:50;;;;;;;7.70;1.15;;;9.30;70.40;;;;;;5024224;28;20052;-75
2021/03/16 11:46:16;;;;;;;3.67;0.60;;;9.60;70.90;;;;;;5025327;28;20045;-75
2021/03/16 11:48:41;;;;;;;4.30;0.57;;;9.80;69.80;;;;;;5032662;28;20087;-74
2021/03/16 11:51:07;;;;;;;6.60;0.77;;;9.90;68.70;;;;;;5027368;28;20045;-76
2021/03/16 11:53:33;;;;;;;5.43;0.75;;;9.90;66.60;;;;;;5031621;28;20037;-75
2021/03/16 11:55:59;;;;;;;6.88;1.05;;;9.80;64.20;;;;;;5029975;28;20041;-76
2021/03/16 11:58:25;;;;;;;7.53;2.50;;;9.70;61.30;;;;;;5031763;28;20060;-75
2021/03/16 12:00:53;;;;;;;4.93;0.68;;;9.60;63.90;;;;;;5025909;28;20474;-75
2021/03/16 12:03:19;;;;;;;10.18;0.90;;;9.60;64.10;;;;;;5021851;28;20048;-76
2021/03/16 12:05:45;;;;;;;5.05;1.08;;;9.50;64.50;;;;;;5028276;28;20045;-75
2021/03/16 12:08:11;;;;;;;7.07;1.00;;;9.50;65.10;;;;;;5029072;28;20129;-75
2021/03/16 12:10:37;;;;;;;6.70;0.77;;;9.50;64.30;;;;;;5026570;28;20056;-74
2021/03/16 12:13:03;;;;;;;7.32;1.02;;;9.60;65.00;;;;;;5028048;28;20041;-74
2021/03/16 12:15:28;;;;;;;8.73;0.90;;;9.60;66.30;;;;;;5017974;28;20042;-74
2021/03/16 12:17:54;;;;;;;5.28;0.80;;;9.60;66.50;;;;;;5027119;28;20041;-74
2021/03/16 12:20:20;;;;;;;7.63;0.93;;;9.70;65.80;;;;;;5029873;28;20393;-74
2021/03/16 12:22:46;;;;;;;7.90;0.70;;;9.60;65.50;;;;;;5022596;28;20053;-76
2021/03/16 12:25:12;;;;;;;4.07;0.55;;;9.40;65.80;;;;;;5042314;28;20092;-76
2021/03/16 12:27:42;;;;;;;6.43;1.48;;;9.40;64.10;;;;;;5027015;28;20075;-76
2021/03/16 12:30:09;;;;;;;5.00;1.08;;;9.30;64.00;;;;;;5031442;28;20091;-75
2021/03/16 12:32:38;;;;;;;10.18;1.15;;;9.40;65.00;;;;;;5021923;28;20067;-75
2021/03/16 12:35:10;;;;;;;5.32;0.85;;;9.60;66.10;;;;;;5030890;28;20098;-75
2021/03/16 12:37:36;;;;;;;5.60;0.80;;;9.80;63.90;;;;;;5027746;28;20033;-75
2021/03/16 12:40:04;;;;;;;7.82;1.08;;;9.90;63.10;;;;;;5030368;28;20042;-75
2021/03/16 12:42:31;;;;;;;5.00;0.80;;;10.00;62.30;;;;;;5022864;28;20100;-76
2021/03/16 12:44:57;;;;;;;6.13;1.17;;;10.00;62.60;;;;;;5016526;28;20472;-75
2021/03/16 12:47:24;;;;;;;6.80;1.10;;;10.00;61.90;;;;;;5016960;28;20033;-76
2021/03/16 12:49:51;;;;;;;8.82;2.38;;;9.90;63.10;;;;;;5030585;28;20777;-75
2021/03/16 12:52:16;;;;;;;6.25;1.02;;;9.80;64.50;;;;;;5027056;28;20401;-74
2021/03/16 12:54:43;;;;;;;8.32;0.93;;;9.70;64.60;;;;;;5026205;28;20050;-75
2021/03/16 12:57:08;;;;;;;5.82;1.13;;;9.70;65.00;;;;;;5012764;28;20107;-75